sensor_id;sensor_type;location;lat;lon;timestamp;pressure;altitude;pressure_sealevel;temperature;humidity
4392;BME280;2210;51.938;8.488;2024-02-23T00:00:56;97432.19;;;8.34;76.44
4392;BME280;2210;51.938;8.488;2024-02-23T00:04:56;97449.56;;;8.29;77.03
4392;BME280;2210;51.938;8.488;2024-02-23T00:08:56;97460.09;;;8.22;77.74
4392;BME280;2210;51.938;8.488;2024-02-23T00:12:58;97463.50;;;8.14;78.82
4392;BME280;2210;51.938;8.488;2024-02-23T00:17:02;97486.13;;;8.05;79.76
4392;BME280;2210;51.938;8.488;2024-02-23T00:21:03;97524.81;;;7.85;83.02
4392;BME280;2210;51.938;8.488;2024-02-23T00:25:06;97517.69;;;7.59;82.97
4392;BME280;2210;51.938;8.488;2024-02-23T00:29:06;97540.06;;;7.48;84.20
4392;BME280;2210;51.938;8.488;2024-02-23T00:33:07;97548.31;;;7.42;85.58
4392;BME280;2210;51.938;8.488;2024-02-23T00:37:07;97562.69;;;7.29;88.17
4392;BME280;2210;51.938;8.488;2024-02-23T00:41:10;97591.81;;;7.20;90.73
4392;BME280;2210;51.938;8.488;2024-02-23T00:45:11;97601.22;;;7.14;93.30
4392;BME280;2210;51.938;8.488;2024-02-23T00:49:11;97631.69;;;7.02;95.65
4392;BME280;2210;51.938;8.488;2024-02-23T00:53:11;97643.78;;;6.96;96.52
4392;BME280;2210;51.938;8.488;2024-02-23T00:57:12;97682.72;;;6.92;96.64
4392;BME280;2210;51.938;8.488;2024-02-23T01:01:12;97704.44;;;6.73;97.62
4392;BME280;2210;51.938;8.488;2024-02-23T01:05:15;97709.44;;;6.61;98.74
4392;BME280;2210;51.938;8.488;2024-02-23T01:09:21;97728.09;;;6.54;100.00
4392;BME280;2210;51.938;8.488;2024-02-23T01:13:22;97754.69;;;6.43;100.00
4392;BME280;2210;51.938;8.488;2024-02-23T01:17:22;97770.84;;;6.29;100.00
4392;BME280;2210;51.938;8.488;2024-02-23T01:21:22;97777.44;;;6.23;100.00
4392;BME280;2210;51.938;8.488;2024-02-23T01:25:22;97795.75;;;6.28;100.00
4392;BME280;2210;51.938;8.488;2024-02-23T01:29:25;97805.88;;;6.22;100.00
4392;BME280;2210;51.938;8.488;2024-02-23T01:33:25;97834.31;;;6.21;100.00
4392;BME280;2210;51.938;8.488;2024-02-23T01:37:25;97824.22;;;6.11;100.00
4392;BME280;2210;51.938;8.488;2024-02-23T01:41:31;97826.44;;;6.04;100.00
4392;BME280;2210;51.938;8.488;2024-02-23T01:45:35;97828.59;;;6.02;100.00
4392;BME280;2210;51.938;8.488;2024-02-23T01:49:35;97846.38;;;6.04;100.00
4392;BME280;2210;51.938;8.488;2024-02-23T01:53:36;97847.72;;;5.97;100.00
4392;BME280;2210;51.938;8.488;2024-02-23T01:57:39;97856.47;;;5.94;100.00
4392;BME280;2210;51.938;8.488;2024-02-23T02:01:42;97865.50;;;5.89;100.00
4392;BME280;2210;51.938;8.488;2024-02-23T02:05:43;97849.63;;;5.91;100.00
4392;BME280;2210;51.938;8.488;2024-02-23T02:09:44;97865.22;;;5.85;100.00
4392;BME280;2210;51.938;8.488;2024-02-23T02:13:45;97881.06;;;5.78;100.00
4392;BME280;2210;51.938;8.488;2024-02-23T02:17:45;97896.06;;;5.60;100.00
4392;BME280;2210;51.938;8.488;2024-02-23T02:21:45;97909.72;;;5.55;100.00
4392;BME280;2210;51.938;8.488;2024-02-23T02:25:52;97896.59;;;5.57;100.00
4392;BME280;2210;51.938;8.488;2024-02-23T02:29:55;97914.13;;;5.66;100.00
4392;BME280;2210;51.938;8.488;2024-02-23T02:33:55;97918.22;;;5.64;100.00
4392;BME280;2210;51.938;8.488;2024-02-23T02:37:56;97932.69;;;5.59;100.00
4392;BME280;2210;51.938;8.488;2024-02-23T02:41:56;97938.16;;;5.69;100.00
4392;BME280;2210;51.938;8.488;2024-02-23T02:45:57;97944.44;;;5.60;100.00
4392;BME280;2210;51.938;8.488;2024-02-23T02:49:58;97952.66;;;5.65;100.00
4392;BME280;2210;51.938;8.488;2024-02-23T02:53:58;97964.91;;;5.57;98.98
4392;BME280;2210;51.938;8.488;2024-02-23T02:57:59;97962.22;;;5.62;98.81
4392;BME280;2210;51.938;8.488;2024-02-23T03:02:02;97966.59;;;5.73;99.33
4392;BME280;2210;51.938;8.488;2024-02-23T03:06:02;97966.09;;;5.77;97.37
4392;BME280;2210;51.938;8.488;2024-02-23T03:10:03;97965.00;;;5.72;96.74
4392;BME280;2210;51.938;8.488;2024-02-23T03:14:03;97963.88;;;5.73;96.42
4392;BME280;2210;51.938;8.488;2024-02-23T03:18:04;97974.56;;;5.80;95.94
4392;BME280;2210;51.938;8.488;2024-02-23T03:22:07;97973.19;;;5.83;95.90
4392;BME280;2210;51.938;8.488;2024-02-23T03:26:08;97985.81;;;5.89;95.13
4392;BME280;2210;51.938;8.488;2024-02-23T03:30:08;97979.78;;;5.92;95.50
4392;BME280;2210;51.938;8.488;2024-02-23T03:34:09;97983.34;;;5.87;95.74
4392;BME280;2210;51.938;8.488;2024-02-23T03:38:13;97989.06;;;5.86;94.46
4392;BME280;2210;51.938;8.488;2024-02-23T03:42:19;97985.81;;;5.89;94.47
4392;BME280;2210;51.938;8.488;2024-02-23T03:46:19;97992.91;;;5.85;94.66
4392;BME280;2210;51.938;8.488;2024-02-23T03:50:23;97994.53;;;5.86;93.26
4392;BME280;2210;51.938;8.488;2024-02-23T03:54:26;98000.25;;;5.84;91.83
4392;BME280;2210;51.938;8.488;2024-02-23T03:58:26;97996.44;;;5.80;92.03
4392;BME280;2210;51.938;8.488;2024-02-23T04:02:26;98004.88;;;5.73;90.80
4392;BME280;2210;51.938;8.488;2024-02-23T04:06:27;98012.50;;;5.66;92.19
4392;BME280;2210;51.938;8.488;2024-02-23T04:10:27;98012.50;;;5.66;91.26
4392;BME280;2210;51.938;8.488;2024-02-23T04:14:27;98025.38;;;5.66;89.55
4392;BME280;2210;51.938;8.488;2024-02-23T04:18:27;98025.13;;;5.72;89.33
4392;BME280;2210;51.938;8.488;2024-02-23T04:22:28;98013.59;;;5.65;88.60
4392;BME280;2210;51.938;8.488;2024-02-23T04:26:28;98027.00;;;5.62;88.46
4392;BME280;2210;51.938;8.488;2024-02-23T04:30:28;98034.34;;;5.61;87.90
4392;BME280;2210;51.938;8.488;2024-02-23T04:34:28;98039.25;;;5.54;89.05
4392;BME280;2210;51.938;8.488;2024-02-23T04:38:32;98043.38;;;5.56;90.27
4392;BME280;2210;51.938;8.488;2024-02-23T04:42:34;98058.91;;;5.56;90.24
4392;BME280;2210;51.938;8.488;2024-02-23T04:46:34;98057.53;;;5.53;90.41
4392;BME280;2210;51.938;8.488;2024-02-23T04:50:35;98076.19;;;5.62;89.86
4392;BME280;2210;51.938;8.488;2024-02-23T04:54:35;98078.38;;;5.65;90.89
4392;BME280;2210;51.938;8.488;2024-02-23T04:58:35;98087.97;;;5.67;90.97
4392;BME280;2210;51.938;8.488;2024-02-23T05:02:37;98089.88;;;5.72;91.25
4392;BME280;2210;51.938;8.488;2024-02-23T05:06:38;98098.34;;;5.70;91.10
4392;BME280;2210;51.938;8.488;2024-02-23T05:10:41;98098.66;;;5.74;91.33
4392;BME280;2210;51.938;8.488;2024-02-23T05:14:41;98110.41;;;5.74;92.09
4392;BME280;2210;51.938;8.488;2024-02-23T05:18:47;98114.75;;;5.70;92.34
4392;BME280;2210;51.938;8.488;2024-02-23T05:22:48;98120.50;;;5.69;92.86
4392;BME280;2210;51.938;8.488;2024-02-23T05:26:54;98120.78;;;5.67;92.94
4392;BME280;2210;51.938;8.488;2024-02-23T05:30:58;98124.59;;;5.66;93.21
4392;BME280;2210;51.938;8.488;2024-02-23T05:34:58;98131.69;;;5.67;94.37
4392;BME280;2210;51.938;8.488;2024-02-23T05:38:58;98132.25;;;5.69;94.46
4392;BME280;2210;51.938;8.488;2024-02-23T05:42:58;98134.44;;;5.67;94.11
4392;BME280;2210;51.938;8.488;2024-02-23T05:47:05;98141.78;;;5.67;92.67
4392;BME280;2210;51.938;8.488;2024-02-23T05:51:14;98152.50;;;5.68;92.29
4392;BME280;2210;51.938;8.488;2024-02-23T05:55:15;98157.41;;;5.71;92.95
4392;BME280;2210;51.938;8.488;2024-02-23T05:59:15;98159.56;;;5.69;92.29
4392;BME280;2210;51.938;8.488;2024-02-23T06:03:15;98157.97;;;5.68;92.04
4392;BME280;2210;51.938;8.488;2024-02-23T06:07:16;98163.97;;;5.70;91.52
4392;BME280;2210;51.938;8.488;2024-02-23T06:11:16;98157.69;;;5.70;91.37
4392;BME280;2210;51.938;8.488;2024-02-23T06:15:20;98167.28;;;5.72;91.32
4392;BME280;2210;51.938;8.488;2024-02-23T06:19:20;98163.97;;;5.70;91.44
4392;BME280;2210;51.938;8.488;2024-02-23T06:23:20;98159.84;;;5.68;90.75
4392;BME280;2210;51.938;8.488;2024-02-23T06:27:22;98167.50;;;5.66;90.03
4392;BME280;2210;51.938;8.488;2024-02-23T06:31:22;98170.78;;;5.68;89.85
4392;BME280;2210;51.938;8.488;2024-02-23T06:35:22;98169.41;;;5.65;89.97
4392;BME280;2210;51.938;8.488;2024-02-23T06:39:23;98174.59;;;5.62;90.61
4392;BME280;2210;51.938;8.488;2024-02-23T06:43:23;98173.19;;;5.59;90.22
4392;BME280;2210;51.938;8.488;2024-02-23T06:47:26;98183.00;;;5.55;90.34
4392;BME280;2210;51.938;8.488;2024-02-23T06:51:26;98178.03;;;5.47;90.22
4392;BME280;2210;51.938;8.488;2024-02-23T06:55:27;98184.00;;;5.44;91.52
4392;BME280;2210;51.938;8.488;2024-02-23T06:59:27;98184.00;;;5.44;91.32
4392;BME280;2210;51.938;8.488;2024-02-23T07:03:27;98199.84;;;5.42;91.32
4392;BME280;2210;51.938;8.488;2024-02-23T07:07:27;98195.50;;;5.46;91.27
4392;BME280;2210;51.938;8.488;2024-02-23T07:11:28;98201.25;;;5.49;90.38
4392;BME280;2210;51.938;8.488;2024-02-23T07:15:31;98195.25;;;5.47;90.38
4392;BME280;2210;51.938;8.488;2024-02-23T07:19:32;98187.56;;;5.44;90.61
4392;BME280;2210;51.938;8.488;2024-02-23T07:23:32;98189.56;;;5.54;90.31
4392;BME280;2210;51.938;8.488;2024-02-23T07:27:33;98191.50;;;5.58;90.75
4392;BME280;2210;51.938;8.488;2024-02-23T07:31:34;98191.53;;;5.64;88.93
4392;BME280;2210;51.938;8.488;2024-02-23T07:35:34;98185.31;;;5.73;88.92
4392;BME280;2210;51.938;8.488;2024-02-23T07:39:34;98187.78;;;5.75;87.77
4392;BME280;2210;51.938;8.488;2024-02-23T07:43:35;98190.81;;;5.79;87.93
4392;BME280;2210;51.938;8.488;2024-02-23T07:47:35;98194.16;;;5.91;86.67
4392;BME280;2210;51.938;8.488;2024-02-23T07:51:35;98192.00;;;5.93;86.52
4392;BME280;2210;51.938;8.488;2024-02-23T07:55:36;98194.81;;;6.03;85.41
4392;BME280;2210;51.938;8.488;2024-02-23T07:59:36;98198.66;;;6.02;85.38
4392;BME280;2210;51.938;8.488;2024-02-23T08:03:36;98199.50;;;6.08;85.45
4392;BME280;2210;51.938;8.488;2024-02-23T08:07:37;98205.00;;;6.13;85.72
4392;BME280;2210;51.938;8.488;2024-02-23T08:11:37;98206.63;;;6.14;85.03
4392;BME280;2210;51.938;8.488;2024-02-23T08:15:37;98211.59;;;6.17;83.50
4392;BME280;2210;51.938;8.488;2024-02-23T08:19:38;98216.81;;;6.24;84.19
4392;BME280;2210;51.938;8.488;2024-02-23T08:23:41;98236.03;;;6.39;83.34
4392;BME280;2210;51.938;8.488;2024-02-23T08:27:41;98239.31;;;6.41;83.06
4392;BME280;2210;51.938;8.488;2024-02-23T08:31:41;98255.25;;;6.50;82.39
4392;BME280;2210;51.938;8.488;2024-02-23T08:35:42;98248.44;;;6.63;82.08
4392;BME280;2210;51.938;8.488;2024-02-23T08:39:45;98249.56;;;6.67;81.89
4392;BME280;2210;51.938;8.488;2024-02-23T08:43:46;98255.28;;;6.60;81.88
4392;BME280;2210;51.938;8.488;2024-02-23T08:47:46;98246.25;;;6.60;81.41
4392;BME280;2210;51.938;8.488;2024-02-23T08:51:46;98248.72;;;6.61;81.34
4392;BME280;2210;51.938;8.488;2024-02-23T08:55:47;98268.19;;;6.70;82.01
4392;BME280;2210;51.938;8.488;2024-02-23T08:59:47;98266.56;;;6.69;81.01
4392;BME280;2210;51.938;8.488;2024-02-23T09:03:47;98278.63;;;6.73;81.16
4392;BME280;2210;51.938;8.488;2024-02-23T09:07:48;98288.16;;;6.65;80.18
4392;BME280;2210;51.938;8.488;2024-02-23T09:11:48;98296.41;;;6.70;80.90
4392;BME280;2210;51.938;8.488;2024-02-23T09:15:49;98288.69;;;6.62;80.11
4392;BME280;2210;51.938;8.488;2024-02-23T09:19:49;98298.00;;;6.61;79.60
4392;BME280;2210;51.938;8.488;2024-02-23T09:23:49;98302.66;;;6.61;79.68
4392;BME280;2210;51.938;8.488;2024-02-23T09:27:49;98285.38;;;6.60;79.75
4392;BME280;2210;51.938;8.488;2024-02-23T09:31:50;98287.34;;;6.70;80.93
4392;BME280;2210;51.938;8.488;2024-02-23T09:35:50;98284.34;;;6.77;80.31
4392;BME280;2210;51.938;8.488;2024-02-23T09:39:50;98277.81;;;6.83;80.03
4392;BME280;2210;51.938;8.488;2024-02-23T09:43:50;98278.94;;;6.87;79.05
4392;BME280;2210;51.938;8.488;2024-02-23T09:47:53;98286.06;;;6.93;78.56
4392;BME280;2210;51.938;8.488;2024-02-23T09:51:54;98277.84;;;6.98;78.37
4392;BME280;2210;51.938;8.488;2024-02-23T09:55:55;98297.09;;;7.08;77.13
4392;BME280;2210;51.938;8.488;2024-02-23T09:59:57;98289.41;;;7.11;77.64
4392;BME280;2210;51.938;8.488;2024-02-23T10:03:59;98289.94;;;7.07;76.84
4392;BME280;2210;51.938;8.488;2024-02-23T10:07:59;98289.94;;;7.07;77.40
4392;BME280;2210;51.938;8.488;2024-02-23T10:12:01;98298.19;;;7.13;77.85
4392;BME280;2210;51.938;8.488;2024-02-23T10:16:01;98298.47;;;7.11;76.00
4392;BME280;2210;51.938;8.488;2024-02-23T10:20:02;98310.81;;;7.14;76.33
4392;BME280;2210;51.938;8.488;2024-02-23T10:24:05;98311.63;;;7.14;75.67
4392;BME280;2210;51.938;8.488;2024-02-23T10:28:06;98314.06;;;7.16;75.18
4392;BME280;2210;51.938;8.488;2024-02-23T10:32:07;98309.16;;;7.23;76.10
4392;BME280;2210;51.938;8.488;2024-02-23T10:36:11;98304.81;;;7.27;75.26
4392;BME280;2210;51.938;8.488;2024-02-23T10:40:19;98310.28;;;7.27;75.66
4392;BME280;2210;51.938;8.488;2024-02-23T10:44:20;98314.66;;;7.28;75.62
4392;BME280;2210;51.938;8.488;2024-02-23T10:48:24;98311.41;;;7.31;76.42
4392;BME280;2210;51.938;8.488;2024-02-23T10:52:38;98304.28;;;7.35;75.31
4392;BME280;2210;51.938;8.488;2024-02-23T10:56:39;98304.25;;;7.40;74.36
4392;BME280;2210;51.938;8.488;2024-02-23T11:00:40;98310.88;;;7.50;74.39
4392;BME280;2210;51.938;8.488;2024-02-23T11:04:42;98298.00;;;7.66;74.25
4392;BME280;2210;51.938;8.488;2024-02-23T11:08:45;98292.25;;;7.78;73.43
4392;BME280;2210;51.938;8.488;2024-02-23T11:12:57;98292.78;;;7.90;73.33
4392;BME280;2210;51.938;8.488;2024-02-23T11:16:57;98279.06;;;8.00;72.47
4392;BME280;2210;51.938;8.488;2024-02-23T11:21:02;98276.31;;;8.10;71.26
4392;BME280;2210;51.938;8.488;2024-02-23T11:25:03;98266.38;;;8.30;70.74
4392;BME280;2210;51.938;8.488;2024-02-23T11:29:12;98266.94;;;8.27;71.28
4392;BME280;2210;51.938;8.488;2024-02-23T11:33:25;98265.56;;;8.24;71.58
4392;BME280;2210;51.938;8.488;2024-02-23T11:37:29;98275.19;;;8.22;72.24
4392;BME280;2210;51.938;8.488;2024-02-23T11:41:33;98264.75;;;8.19;72.42
4392;BME280;2210;51.938;8.488;2024-02-23T11:45:33;98273.28;;;8.17;72.07
4392;BME280;2210;51.938;8.488;2024-02-23T11:49:34;98270.81;;;8.16;72.57
4392;BME280;2210;51.938;8.488;2024-02-23T11:53:36;98269.97;;;8.15;72.32
4392;BME280;2210;51.938;8.488;2024-02-23T11:57:41;98276.84;;;8.18;72.33
4392;BME280;2210;51.938;8.488;2024-02-23T12:01:47;98273.28;;;8.12;72.41
4392;BME280;2210;51.938;8.488;2024-02-23T12:05:49;98283.97;;;8.14;72.81
4392;BME280;2210;51.938;8.488;2024-02-23T12:10:02;98273.00;;;8.19;72.05
4392;BME280;2210;51.938;8.488;2024-02-23T12:14:05;98273.00;;;8.24;70.93
4392;BME280;2210;51.938;8.488;2024-02-23T12:18:10;98279.56;;;8.28;72.03
4392;BME280;2210;51.938;8.488;2024-02-23T12:22:10;98266.69;;;8.18;71.51
4392;BME280;2210;51.938;8.488;2024-02-23T12:26:18;98278.53;;;8.08;71.27
4392;BME280;2210;51.938;8.488;2024-02-23T12:30:19;98270.25;;;8.14;70.96
4392;BME280;2210;51.938;8.488;2024-02-23T12:34:22;98286.19;;;8.12;70.87
4392;BME280;2210;51.938;8.488;2024-02-23T12:38:37;98276.31;;;8.21;71.05
4392;BME280;2210;51.938;8.488;2024-02-23T12:42:43;98287.00;;;8.22;71.44
4392;BME280;2210;51.938;8.488;2024-02-23T12:46:44;98280.09;;;8.46;71.32
4392;BME280;2210;51.938;8.488;2024-02-23T12:50:48;98274.56;;;8.56;71.60
4392;BME280;2210;51.938;8.488;2024-02-23T12:54:49;98283.94;;;8.55;70.45
4392;BME280;2210;51.938;8.488;2024-02-23T12:58:49;98272.06;;;8.65;68.82
4392;BME280;2210;51.938;8.488;2024-02-23T13:02:49;98276.38;;;8.91;69.47
4392;BME280;2210;51.938;8.488;2024-02-23T13:06:53;98269.56;;;8.73;71.37
4392;BME280;2210;51.938;8.488;2024-02-23T13:10:54;98277.88;;;8.53;71.50
4392;BME280;2210;51.938;8.488;2024-02-23T13:14:55;98275.13;;;8.58;71.92
4392;BME280;2210;51.938;8.488;2024-02-23T13:18:55;98276.50;;;8.60;71.18
4392;BME280;2210;51.938;8.488;2024-02-23T13:22:59;98277.06;;;8.57;69.69
4392;BME280;2210;51.938;8.488;2024-02-23T13:26:59;98274.31;;;8.52;69.70
4392;BME280;2210;51.938;8.488;2024-02-23T13:30:59;98273.19;;;8.58;71.38
4392;BME280;2210;51.938;8.488;2024-02-23T13:35:03;98277.06;;;8.52;70.74
4392;BME280;2210;51.938;8.488;2024-02-23T13:39:04;98276.22;;;8.52;71.01
4392;BME280;2210;51.938;8.488;2024-02-23T13:43:04;98271.03;;;8.50;70.15
4392;BME280;2210;51.938;8.488;2024-02-23T13:47:08;98279.81;;;8.47;70.33
4392;BME280;2210;51.938;8.488;2024-02-23T13:51:08;98284.50;;;8.47;70.54
4392;BME280;2210;51.938;8.488;2024-02-23T13:55:09;98287.50;;;8.40;71.51
4392;BME280;2210;51.938;8.488;2024-02-23T13:59:12;98291.06;;;8.40;70.46
4392;BME280;2210;51.938;8.488;2024-02-23T14:03:17;98298.78;;;8.38;72.21
4392;BME280;2210;51.938;8.488;2024-02-23T14:07:23;98307.28;;;8.26;74.59
4392;BME280;2210;51.938;8.488;2024-02-23T14:11:23;98307.28;;;8.26;75.29
4392;BME280;2210;51.938;8.488;2024-02-23T14:15:23;98308.94;;;8.27;74.44
4392;BME280;2210;51.938;8.488;2024-02-23T14:19:24;98301.81;;;8.32;73.57
4392;BME280;2210;51.938;8.488;2024-02-23T14:23:25;98308.66;;;8.34;73.65
4392;BME280;2210;51.938;8.488;2024-02-23T14:27:40;98324.59;;;8.32;73.82
4392;BME280;2210;51.938;8.488;2024-02-23T14:31:49;98330.34;;;8.36;73.98
4392;BME280;2210;51.938;8.488;2024-02-23T14:36:01;98330.34;;;8.36;74.66
4392;BME280;2210;51.938;8.488;2024-02-23T14:40:02;98331.16;;;8.31;73.68
4392;BME280;2210;51.938;8.488;2024-02-23T14:44:11;98329.25;;;8.26;74.28
4392;BME280;2210;51.938;8.488;2024-02-23T14:48:14;98334.47;;;8.23;74.20
4392;BME280;2210;51.938;8.488;2024-02-23T14:52:15;98334.47;;;8.18;74.77
4392;BME280;2210;51.938;8.488;2024-02-23T14:56:16;98335.84;;;8.15;75.86
4392;BME280;2210;51.938;8.488;2024-02-23T15:00:19;98343.25;;;8.15;75.79
4392;BME280;2210;51.938;8.488;2024-02-23T15:04:19;98333.38;;;8.14;76.02
4392;BME280;2210;51.938;8.488;2024-02-23T15:08:20;98338.88;;;8.14;76.41
4392;BME280;2210;51.938;8.488;2024-02-23T15:12:39;98348.22;;;8.13;77.46
4392;BME280;2210;51.938;8.488;2024-02-23T15:16:43;98346.00;;;8.04;79.68
4392;BME280;2210;51.938;8.488;2024-02-23T15:20:44;98353.97;;;7.96;81.47
4392;BME280;2210;51.938;8.488;2024-02-23T15:24:50;98350.13;;;7.97;80.70
4392;BME280;2210;51.938;8.488;2024-02-23T15:29:09;98352.03;;;7.96;82.34
4392;BME280;2210;51.938;8.488;2024-02-23T15:33:18;98347.66;;;7.95;82.30
4392;BME280;2210;51.938;8.488;2024-02-23T15:37:19;98345.47;;;7.97;81.40
4392;BME280;2210;51.938;8.488;2024-02-23T15:41:19;98353.97;;;8.01;80.86
4392;BME280;2210;51.938;8.488;2024-02-23T15:45:19;98349.31;;;8.06;80.26
4392;BME280;2210;51.938;8.488;2024-02-23T15:49:20;98348.75;;;8.09;78.64
4392;BME280;2210;51.938;8.488;2024-02-23T15:53:32;98346.56;;;8.12;77.30
4392;BME280;2210;51.938;8.488;2024-02-23T15:57:45;98355.34;;;8.08;77.85
4392;BME280;2210;51.938;8.488;2024-02-23T16:01:51;98352.06;;;8.12;76.51
4392;BME280;2210;51.938;8.488;2024-02-23T16:05:58;98343.81;;;8.12;77.46
4392;BME280;2210;51.938;8.488;2024-02-23T16:10:15;98350.41;;;8.10;77.33
4392;BME280;2210;51.938;8.488;2024-02-23T16:14:19;98352.59;;;8.14;77.16
4392;BME280;2210;51.938;8.488;2024-02-23T16:18:22;98341.63;;;8.08;77.77
4392;BME280;2210;51.938;8.488;2024-02-23T16:22:25;98351.50;;;8.09;76.99
4392;BME280;2210;51.938;8.488;2024-02-23T16:26:25;98357.25;;;8.13;75.11
4392;BME280;2210;51.938;8.488;2024-02-23T16:30:25;98353.16;;;8.10;76.04
4392;BME280;2210;51.938;8.488;2024-02-23T16:34:29;98353.97;;;8.06;76.18
4392;BME280;2210;51.938;8.488;2024-02-23T16:38:31;98370.44;;;8.06;76.14
4392;BME280;2210;51.938;8.488;2024-02-23T16:42:44;98365.47;;;8.03;76.40
4392;BME280;2210;51.938;8.488;2024-02-23T16:46:44;98368.25;;;7.98;76.26
4392;BME280;2210;51.938;8.488;2024-02-23T16:50:44;98366.88;;;7.95;76.53
4392;BME280;2210;51.938;8.488;2024-02-23T16:54:52;98360.84;;;7.83;77.79
4392;BME280;2210;51.938;8.488;2024-02-23T16:58:52;98369.31;;;7.81;77.09
4392;BME280;2210;51.938;8.488;2024-02-23T17:02:53;98370.97;;;7.82;77.27
4392;BME280;2210;51.938;8.488;2024-02-23T17:06:57;98373.44;;;7.79;77.54
4392;BME280;2210;51.938;8.488;2024-02-23T17:11:03;98380.53;;;7.74;77.45
4392;BME280;2210;51.938;8.488;2024-02-23T17:15:04;98373.97;;;7.70;77.56
4392;BME280;2210;51.938;8.488;2024-02-23T17:19:04;98388.50;;;7.66;79.11
4392;BME280;2210;51.938;8.488;2024-02-23T17:23:05;98379.97;;;7.62;78.22
4392;BME280;2210;51.938;8.488;2024-02-23T17:27:05;98396.16;;;7.64;78.47
4392;BME280;2210;51.938;8.488;2024-02-23T17:31:05;98400.81;;;7.63;78.33
4392;BME280;2210;51.938;8.488;2024-02-23T17:35:06;98391.50;;;7.64;78.89
4392;BME280;2210;51.938;8.488;2024-02-23T17:39:06;98401.63;;;7.64;78.65
4392;BME280;2210;51.938;8.488;2024-02-23T17:43:09;98404.66;;;7.62;78.92
4392;BME280;2210;51.938;8.488;2024-02-23T17:47:10;98412.59;;;7.64;79.39
4392;BME280;2210;51.938;8.488;2024-02-23T17:51:10;98415.91;;;7.60;79.49
4392;BME280;2210;51.938;8.488;2024-02-23T17:55:10;98419.47;;;7.61;78.97
4392;BME280;2210;51.938;8.488;2024-02-23T17:59:13;98424.97;;;7.61;79.57
4392;BME280;2210;51.938;8.488;2024-02-23T18:03:14;98424.41;;;7.59;79.54
4392;BME280;2210;51.938;8.488;2024-02-23T18:07:20;98426.56;;;7.52;79.56
4392;BME280;2210;51.938;8.488;2024-02-23T18:11:21;98434.22;;;7.50;79.06
4392;BME280;2210;51.938;8.488;2024-02-23T18:15:24;98447.94;;;7.50;78.95
4392;BME280;2210;51.938;8.488;2024-02-23T18:19:30;98443.56;;;7.43;78.01
4392;BME280;2210;51.938;8.488;2024-02-23T18:23:33;98450.66;;;7.45;77.62
4392;BME280;2210;51.938;8.488;2024-02-23T18:27:33;98456.72;;;7.47;76.75
4392;BME280;2210;51.938;8.488;2024-02-23T18:31:37;98462.75;;;7.43;76.60
4392;BME280;2210;51.938;8.488;2024-02-23T18:35:37;98451.50;;;7.45;75.43
4392;BME280;2210;51.938;8.488;2024-02-23T18:39:37;98459.97;;;7.38;75.27
4392;BME280;2210;51.938;8.488;2024-02-23T18:43:41;98458.00;;;7.34;75.29
4392;BME280;2210;51.938;8.488;2024-02-23T18:47:53;98458.78;;;7.24;75.71
4392;BME280;2210;51.938;8.488;2024-02-23T18:51:53;98456.56;;;7.16;76.07
4392;BME280;2210;51.938;8.488;2024-02-23T18:55:53;98468.06;;;7.13;76.16
4392;BME280;2210;51.938;8.488;2024-02-23T18:59:54;98462.56;;;7.07;76.97
4392;BME280;2210;51.938;8.488;2024-02-23T19:03:54;98472.34;;;6.98;77.02
4392;BME280;2210;51.938;8.488;2024-02-23T19:07:54;98457.56;;;6.99;77.58
4392;BME280;2210;51.938;8.488;2024-02-23T19:11:58;98469.66;;;7.03;77.98
4392;BME280;2210;51.938;8.488;2024-02-23T19:16:12;98464.44;;;7.02;77.71
4392;BME280;2210;51.938;8.488;2024-02-23T19:20:17;98474.81;;;7.00;77.57
4392;BME280;2210;51.938;8.488;2024-02-23T19:24:20;98478.69;;;7.04;78.31
4392;BME280;2210;51.938;8.488;2024-02-23T19:28:20;98476.19;;;6.97;78.89
4392;BME280;2210;51.938;8.488;2024-02-23T19:32:24;98475.13;;;7.03;78.28
4392;BME280;2210;51.938;8.488;2024-02-23T19:36:24;98477.88;;;7.03;77.88
4392;BME280;2210;51.938;8.488;2024-02-23T19:40:25;98481.97;;;7.01;77.61
4392;BME280;2210;51.938;8.488;2024-02-23T19:44:34;98482.28;;;7.04;77.68
4392;BME280;2210;51.938;8.488;2024-02-23T19:48:44;98483.34;;;7.03;77.47
4392;BME280;2210;51.938;8.488;2024-02-23T19:53:02;98491.03;;;7.06;77.85
4392;BME280;2210;51.938;8.488;2024-02-23T19:57:02;98491.03;;;7.06;77.20
4392;BME280;2210;51.938;8.488;2024-02-23T20:01:05;98485.28;;;7.08;76.60
4392;BME280;2210;51.938;8.488;2024-02-23T20:05:06;98492.47;;;7.14;76.50
4392;BME280;2210;51.938;8.488;2024-02-23T20:09:12;98493.28;;;7.15;76.10
4392;BME280;2210;51.938;8.488;2024-02-23T20:13:16;98487.78;;;7.15;76.82
4392;BME280;2210;51.938;8.488;2024-02-23T20:17:16;98493.03;;;7.16;75.93
4392;BME280;2210;51.938;8.488;2024-02-23T20:21:20;98493.03;;;7.16;75.97
4392;BME280;2210;51.938;8.488;2024-02-23T20:25:20;98497.13;;;7.14;76.44
4392;BME280;2210;51.938;8.488;2024-02-23T20:29:38;98502.59;;;7.14;75.48
4392;BME280;2210;51.938;8.488;2024-02-23T20:33:38;98500.38;;;7.11;76.10
4392;BME280;2210;51.938;8.488;2024-02-23T20:37:40;98501.44;;;7.04;76.20
4392;BME280;2210;51.938;8.488;2024-02-23T20:41:47;98502.00;;;7.01;76.14
4392;BME280;2210;51.938;8.488;2024-02-23T20:45:51;98496.72;;;6.95;76.24
4392;BME280;2210;51.938;8.488;2024-02-23T20:49:54;98494.78;;;6.90;76.14
4392;BME280;2210;51.938;8.488;2024-02-23T20:54:00;98490.31;;;6.79;76.85
4392;BME280;2210;51.938;8.488;2024-02-23T20:58:03;98499.03;;;6.70;76.83
4392;BME280;2210;51.938;8.488;2024-02-23T21:02:04;98500.06;;;6.64;78.49
4392;BME280;2210;51.938;8.488;2024-02-23T21:06:04;98503.28;;;6.56;78.45
4392;BME280;2210;51.938;8.488;2024-02-23T21:10:07;98510.31;;;6.47;79.89
4392;BME280;2210;51.938;8.488;2024-02-23T21:14:27;98508.00;;;6.33;79.74
4392;BME280;2210;51.938;8.488;2024-02-23T21:18:33;98505.47;;;6.27;80.55
4392;BME280;2210;51.938;8.488;2024-02-23T21:22:43;98507.88;;;6.18;81.13
4392;BME280;2210;51.938;8.488;2024-02-23T21:26:43;98517.09;;;6.12;82.07
4392;BME280;2210;51.938;8.488;2024-02-23T21:30:45;98512.09;;;6.03;83.04
4392;BME280;2210;51.938;8.488;2024-02-23T21:34:50;98518.56;;;5.97;84.64
4392;BME280;2210;51.938;8.488;2024-02-23T21:38:50;98511.44;;;5.96;83.98
4392;BME280;2210;51.938;8.488;2024-02-23T21:42:59;98525.22;;;6.01;84.76
4392;BME280;2210;51.938;8.488;2024-02-23T21:47:00;98520.09;;;6.10;87.13
4392;BME280;2210;51.938;8.488;2024-02-23T21:51:00;98515.59;;;5.99;84.30
4392;BME280;2210;51.938;8.488;2024-02-23T21:55:04;98510.03;;;5.94;85.30
4392;BME280;2210;51.938;8.488;2024-02-23T21:59:05;98509.34;;;6.03;86.97
4392;BME280;2210;51.938;8.488;2024-02-23T22:03:05;98505.41;;;5.94;87.72
4392;BME280;2210;51.938;8.488;2024-02-23T22:07:09;98512.94;;;6.04;89.33
4392;BME280;2210;51.938;8.488;2024-02-23T22:11:16;98510.13;;;5.99;91.15
4392;BME280;2210;51.938;8.488;2024-02-23T22:15:16;98505.09;;;5.90;89.98